Time;durP1;ratioP1;P1;durP2;ratioP2;P2;SDS_P1;SDS_P2;PMS_P1;PMS_P2;Temp;Humidity;BMP_temperature;BMP_pressure;BME280_temperature;BME280_humidity;BME280_pressure;Samples;Min_cycle;Max_cycle;Signal;HPM_P1;HPM_P2
2022/06/14 00:03:33;;;;;;;3.70;1.98;;;11.60;99.90;;;;;;4948026;29;20063;-50
2022/06/14 00:06:01;;;;;;;6.15;1.88;;;11.60;99.90;;;;;;4931924;29;20019;-48
2022/06/14 00:08:28;;;;;;;4.32;2.40;;;11.60;99.90;;;;;;4991403;28;20116;-47
2022/06/14 00:10:56;;;;;;;5.60;2.10;;;11.60;99.90;;;;;;5026725;28;20032;-49
2022/06/14 00:13:22;;;;;;;5.75;2.55;;;11.60;99.90;;;;;;5028682;28;20076;-47
2022/06/14 00:15:48;;;;;;;4.18;2.15;;;11.50;99.90;;;;;;5028576;28;20112;-48
2022/06/14 00:18:15;;;;;;;8.55;2.05;;;11.50;99.90;;;;;;5028900;28;20072;-50
2022/06/14 00:20:42;;;;;;;11.75;2.72;;;11.40;99.90;;;;;;5027868;28;20104;-51
2022/06/14 00:23:08;;;;;;;7.40;2.40;;;11.40;99.90;;;;;;5028438;28;20013;-47
2022/06/14 00:25:40;;;;;;;6.25;2.25;;;11.40;99.90;;;;;;5028425;28;20040;-50
2022/06/14 00:28:08;;;;;;;7.45;2.40;;;11.40;99.90;;;;;;5028659;28;20052;-49
2022/06/14 00:30:34;;;;;;;4.93;2.03;;;11.30;99.90;;;;;;5031834;28;20052;-47
2022/06/14 00:33:00;;;;;;;7.05;2.38;;;11.30;99.90;;;;;;5032930;28;20029;-56
2022/06/14 00:35:26;;;;;;;6.65;2.80;;;11.30;99.90;;;;;;5032762;28;20380;-47
2022/06/14 00:37:51;;;;;;;9.48;2.90;;;11.30;99.90;;;;;;5032782;28;20033;-46
2022/06/14 00:40:22;;;;;;;7.30;2.28;;;11.20;99.90;;;;;;5032033;28;20256;-46
2022/06/14 00:42:47;;;;;;;5.72;2.00;;;11.30;99.90;;;;;;5032568;28;20057;-48
2022/06/14 00:45:13;;;;;;;9.65;2.28;;;11.20;99.90;;;;;;5032340;28;20514;-50
2022/06/14 00:48:19;;;;;;;5.45;2.22;;;11.20;99.90;;;;;;5032292;28;20029;-49
2022/06/14 00:50:57;;;;;;;5.18;2.35;;;11.20;99.90;;;;;;5029370;28;20376;-48
2022/06/14 00:53:32;;;;;;;7.95;2.42;;;11.20;99.90;;;;;;5032348;28;20446;-47
2022/06/14 00:56:05;;;;;;;5.63;2.10;;;11.10;99.90;;;;;;5030977;28;20025;-47
2022/06/14 00:58:34;;;;;;;8.65;2.33;;;11.10;99.90;;;;;;5031714;28;20272;-50
2022/06/14 01:01:04;;;;;;;6.65;2.47;;;11.10;99.90;;;;;;5031371;28;20491;-46
2022/06/14 01:03:41;;;;;;;4.78;2.08;;;11.10;99.90;;;;;;5032231;28;20418;-47
2022/06/14 01:06:24;;;;;;;7.70;2.33;;;11.00;99.90;;;;;;5022928;28;20353;-50
2022/06/14 01:08:57;;;;;;;11.32;2.28;;;11.00;99.90;;;;;;5024295;28;20026;-47
2022/06/14 01:11:30;;;;;;;6.72;2.50;;;11.00;99.90;;;;;;5022908;28;20056;-46
2022/06/14 01:13:56;;;;;;;5.85;2.08;;;10.90;99.90;;;;;;5031784;28;20021;-48
2022/06/14 01:16:21;;;;;;;4.75;2.30;;;10.90;99.90;;;;;;5031820;28;20063;-48
2022/06/14 01:18:47;;;;;;;7.10;3.10;;;10.90;99.90;;;;;;5032032;28;20026;-50
2022/06/14 01:21:15;;;;;;;6.18;2.10;;;10.80;99.90;;;;;;5029850;28;20160;-49
2022/06/14 01:23:41;;;;;;;10.90;2.15;;;10.80;99.90;;;;;;5031599;28;20479;-47
2022/06/14 01:26:20;;;;;;;11.07;2.40;;;10.80;99.90;;;;;;5031810;28;20033;-48
2022/06/14 01:28:50;;;;;;;7.47;2.65;;;10.80;99.90;;;;;;5011918;28;20034;-47
2022/06/14 01:31:18;;;;;;;7.90;2.45;;;10.70;99.90;;;;;;5010999;28;20030;-47
2022/06/14 01:33:47;;;;;;;6.75;3.13;;;10.70;99.90;;;;;;5011739;28;20476;-48
2022/06/14 01:36:22;;;;;;;6.70;2.55;;;10.60;99.90;;;;;;5011715;28;20068;-48
2022/06/14 01:38:49;;;;;;;9.38;2.70;;;10.60;99.90;;;;;;5011550;28;20021;-48
2022/06/14 01:41:51;;;;;;;7.07;2.80;;;10.60;99.90;;;;;;5010297;28;20026;-49
2022/06/14 01:44:29;;;;;;;8.00;2.22;;;10.60;99.90;;;;;;5005773;28;20081;-48
2022/06/14 01:47:36;;;;;;;8.20;2.35;;;10.60;99.90;;;;;;5011401;28;20058;-47
2022/06/14 01:53:19;;;;;;;8.10;2.40;;;10.60;99.90;;;;;;5014780;28;20041;-49
2022/06/14 01:56:01;;;;;;;6.18;2.42;;;10.60;99.90;;;;;;5031236;28;20053;-49
2022/06/14 01:58:42;;;;;;;8.10;2.40;;;10.50;99.90;;;;;;5030992;28;20424;-50
2022/06/14 02:01:18;;;;;;;7.32;2.38;;;10.50;99.90;;;;;;5030475;28;20395;-47
2022/06/14 02:07:14;;;;;;;6.55;2.53;;;10.50;99.90;;;;;;5031231;28;20041;-50
2022/06/14 02:10:01;;;;;;;4.40;2.35;;;10.50;99.90;;;;;;5030311;28;20095;-46
2022/06/14 02:12:39;;;;;;;10.70;3.60;;;10.50;99.90;;;;;;5031075;28;20030;-47
2022/06/14 02:15:25;;;;;;;10.80;3.30;;;10.50;99.90;;;;;;5030826;28;20418;-47
2022/06/14 02:18:12;;;;;;;13.13;3.63;;;10.50;99.90;;;;;;5029471;28;20025;-48
2022/06/14 02:20:45;;;;;;;7.25;2.80;;;10.50;99.90;;;;;;5030399;28;20032;-47
2022/06/14 02:23:11;;;;;;;9.75;3.40;;;10.50;99.90;;;;;;5030652;28;20068;-50
2022/06/14 02:25:49;;;;;;;5.05;2.45;;;10.50;99.90;;;;;;5030745;28;20025;-49
2022/06/14 02:28:23;;;;;;;6.85;2.95;;;10.50;99.90;;;;;;5030606;28;20048;-47
2022/06/14 02:31:00;;;;;;;6.40;2.67;;;10.50;99.90;;;;;;5028990;28;20029;-46
2022/06/14 02:33:38;;;;;;;6.32;2.67;;;10.50;99.90;;;;;;5029329;28;20018;-47
2022/06/14 02:36:15;;;;;;;9.15;2.70;;;10.50;99.90;;;;;;5030355;28;20120;-50
2022/06/14 02:38:44;;;;;;;4.25;2.05;;;10.50;99.90;;;;;;5030453;28;20026;-48
2022/06/14 02:41:13;;;;;;;6.97;2.35;;;10.50;99.90;;;;;;5029650;28;20029;-49
2022/06/14 02:43:45;;;;;;;8.25;2.75;;;10.50;99.90;;;;;;5030293;28;20104;-48
2022/06/14 02:46:19;;;;;;;8.18;3.10;;;10.60;99.90;;;;;;5030233;28;20033;-49
2022/06/14 02:49:00;;;;;;;8.23;2.70;;;10.50;99.90;;;;;;5030085;28;20104;-49
2022/06/14 02:51:35;;;;;;;8.20;2.78;;;10.50;99.90;;;;;;5027614;28;20018;-49
2022/06/14 02:54:23;;;;;;;5.22;2.70;;;10.60;99.90;;;;;;5027984;28;20033;-49
2022/06/14 02:57:00;;;;;;;9.57;2.60;;;10.50;99.90;;;;;;5030140;28;20094;-49
2022/06/14 02:59:44;;;;;;;7.55;2.45;;;10.50;99.90;;;;;;5029703;28;20013;-46
2022/06/14 03:02:33;;;;;;;9.93;2.60;;;10.50;99.90;;;;;;5029723;28;20501;-48
2022/06/14 03:05:24;;;;;;;15.80;3.50;;;10.50;99.90;;;;;;5029316;28;20112;-46
2022/06/14 03:08:01;;;;;;;11.98;2.80;;;10.60;99.90;;;;;;5028119;28;20029;-46
2022/06/14 03:10:47;;;;;;;9.02;2.53;;;10.60;99.90;;;;;;5026933;28;20021;-45
2022/06/14 03:13:21;;;;;;;8.02;3.53;;;10.60;99.90;;;;;;5028589;28;20025;-45
2022/06/14 03:15:59;;;;;;;22.52;3.38;;;10.60;99.90;;;;;;5027440;28;20061;-47
2022/06/14 03:18:42;;;;;;;18.23;3.72;;;10.60;99.90;;;;;;5024517;28;20026;-46
2022/06/14 03:21:29;;;;;;;9.95;3.10;;;10.60;99.90;;;;;;5017815;28;20021;-46
2022/06/14 03:24:00;;;;;;;7.10;3.00;;;10.50;99.90;;;;;;5027099;28;20029;-45
2022/06/14 03:26:40;;;;;;;16.58;3.40;;;10.50;99.90;;;;;;5029572;28;20017;-48
2022/06/14 03:29:11;;;;;;;10.07;3.10;;;10.50;99.90;;;;;;5029799;28;20391;-48
2022/06/14 03:32:03;;;;;;;8.05;2.45;;;10.50;99.90;;;;;;5028895;28;20466;-48
2022/06/14 03:34:38;;;;;;;8.52;2.75;;;10.50;99.90;;;;;;5028267;28;20097;-46
2022/06/14 03:37:04;;;;;;;8.07;2.92;;;10.50;99.90;;;;;;5027603;28;20219;-47
2022/06/14 03:39:34;;;;;;;7.13;2.90;;;10.50;99.90;;;;;;5027842;28;20021;-47
2022/06/14 03:42:03;;;;;;;10.70;3.55;;;10.40;99.90;;;;;;5029059;28;20021;-46
2022/06/14 03:44:30;;;;;;;8.45;3.10;;;10.40;99.90;;;;;;5028566;28;20438;-47
2022/06/14 03:47:17;;;;;;;7.03;2.95;;;10.50;99.90;;;;;;5027291;28;20470;-47
2022/06/14 03:49:46;;;;;;;9.05;2.63;;;10.40;99.90;;;;;;5026878;28;20079;-49
2022/06/14 03:52:42;;;;;;;7.60;2.75;;;10.50;99.90;;;;;;5028851;28;20120;-47
2022/06/14 03:55:41;;;;;;;4.60;3.42;;;10.60;99.90;;;;;;5029266;28;20029;-48
2022/06/14 03:58:51;;;;;;;10.23;3.08;;;10.50;99.90;;;;;;5029046;28;20025;-46
2022/06/14 04:01:30;;;;;;;13.00;3.90;;;10.60;99.90;;;;;;5028130;28;20032;-46
2022/06/14 04:04:19;;;;;;;9.27;3.08;;;10.50;99.90;;;;;;5028446;28;20104;-47
2022/06/14 04:07:32;;;;;;;11.50;3.45;;;10.60;99.90;;;;;;5027475;28;20034;-47
2022/06/14 04:10:09;;;;;;;8.32;3.88;;;10.70;99.90;;;;;;5028182;28;20026;-50
2022/06/14 04:13:05;;;;;;;8.32;2.70;;;10.80;99.90;;;;;;5028699;28;20032;-50
2022/06/14 04:15:42;;;;;;;9.25;3.25;;;10.90;99.90;;;;;;5028540;28;20039;-46
2022/06/14 04:18:40;;;;;;;4.47;2.58;;;11.00;99.90;;;;;;5028798;28;20475;-47
2022/06/14 04:21:10;;;;;;;14.40;3.00;;;11.10;99.90;;;;;;5027978;28;20089;-47
2022/06/14 04:24:02;;;;;;;9.70;3.13;;;11.20;99.90;;;;;;5028650;28;20495;-45
2022/06/14 04:26:52;;;;;;;10.07;3.38;;;11.40;99.90;;;;;;5028042;28;20029;-46
2022/06/14 04:29:36;;;;;;;8.82;3.00;;;11.50;99.90;;;;;;5027323;28;20029;-46
2022/06/14 04:32:30;;;;;;;8.90;2.92;;;11.60;99.90;;;;;;5020938;28;20034;-47
2022/06/14 04:35:16;;;;;;;6.88;2.47;;;11.70;99.90;;;;;;5008715;28;20025;-46
2022/06/14 04:37:48;;;;;;;8.02;2.92;;;11.80;99.90;;;;;;5001217;28;20046;-45
2022/06/14 04:40:19;;;;;;;7.38;2.38;;;11.90;99.90;;;;;;5007855;28;20534;-46
2022/06/14 04:42:52;;;;;;;14.15;3.53;;;12.00;99.90;;;;;;5008430;28;20037;-48
2022/06/14 04:45:25;;;;;;;7.35;2.45;;;12.00;99.90;;;;;;5008509;28;20109;-46
2022/06/14 04:48:09;;;;;;;6.90;2.60;;;12.00;99.90;;;;;;5007385;28;20029;-46
2022/06/14 04:50:40;;;;;;;10.40;2.85;;;12.10;99.90;;;;;;5007854;28;20022;-48
2022/06/14 04:53:10;;;;;;;;;;;12.10;99.90;;;;;;5008748;28;20025;-46
2022/06/14 04:55:40;;;;;;;11.93;3.20;;;12.10;99.90;;;;;;5007090;28;19960;-47
2022/06/14 04:58:21;;;;;;;9.68;2.58;;;12.20;99.90;;;;;;5008396;28;20026;-46
2022/06/14 05:00:54;;;;;;;10.27;3.00;;;12.20;99.90;;;;;;5007771;28;20030;-49
2022/06/14 05:03:37;;;;;;;8.15;2.63;;;12.30;99.90;;;;;;5008474;28;20064;-47
2022/06/14 05:06:06;;;;;;;6.18;2.70;;;12.40;99.90;;;;;;5008679;28;20025;-48
2022/06/14 05:08:38;;;;;;;9.77;2.85;;;12.40;99.90;;;;;;5008415;28;20426;-45
2022/06/14 05:11:35;;;;;;;6.60;2.85;;;12.50;99.90;;;;;;5007584;28;20030;-47
2022/06/14 05:14:19;;;;;;;7.43;3.28;;;12.50;99.90;;;;;;5028346;28;20511;-47
2022/06/14 05:16:52;;;;;;;6.80;2.75;;;12.70;99.90;;;;;;5031571;28;20179;-47
2022/06/14 05:19:48;;;;;;;8.10;2.67;;;12.80;99.90;;;;;;5031078;28;20036;-49
2022/06/14 05:22:40;;;;;;;11.80;3.58;;;12.80;99.90;;;;;;5030361;28;20021;-46
2022/06/14 05:25:08;;;;;;;8.40;2.50;;;12.80;99.90;;;;;;5027519;28;20052;-46
2022/06/14 05:27:47;;;;;;;8.88;2.70;;;12.80;99.90;;;;;;5030163;28;20052;-47
2022/06/14 05:30:21;;;;;;;13.60;2.80;;;12.80;99.90;;;;;;5029562;28;20025;-48
2022/06/14 05:33:25;;;;;;;12.25;3.08;;;12.80;99.90;;;;;;5030196;28;20088;-47
2022/06/14 05:35:59;;;;;;;8.10;2.30;;;12.80;99.90;;;;;;4988904;28;20121;-46
2022/06/14 05:38:42;;;;;;;8.93;3.40;;;12.80;99.90;;;;;;4988919;28;20034;-47
2022/06/14 05:41:32;;;;;;;17.98;7.35;;;12.90;99.90;;;;;;5014912;28;20053;-46
2022/06/14 05:44:08;;;;;;;11.50;4.50;;;12.90;99.90;;;;;;5030320;28;20021;-47
2022/06/14 05:46:47;;;;;;;9.35;2.97;;;13.00;99.90;;;;;;5025576;28;20112;-46
2022/06/14 05:49:24;;;;;;;8.60;2.38;;;13.00;99.90;;;;;;5029633;28;20029;-48
2022/06/14 05:52:12;;;;;;;5.03;2.22;;;13.00;99.90;;;;;;5023462;28;20018;-47
2022/06/14 05:55:08;;;;;;;12.18;3.03;;;13.10;99.90;;;;;;5024788;28;20021;-47
2022/06/14 05:57:52;;;;;;;11.60;3.00;;;13.20;99.90;;;;;;5026357;28;20025;-48
2022/06/14 06:00:31;;;;;;;8.13;3.20;;;13.40;99.90;;;;;;5028635;28;20025;-46
2022/06/14 06:03:18;;;;;;;7.10;2.60;;;13.40;99.90;;;;;;5030492;28;20033;-46
2022/06/14 06:05:48;;;;;;;11.13;2.50;;;13.60;99.90;;;;;;5028253;28;20101;-47
2022/06/14 06:08:37;;;;;;;10.37;2.40;;;13.60;99.90;;;;;;5029254;28;20471;-46
2022/06/14 06:11:16;;;;;;;9.15;2.55;;;13.60;99.90;;;;;;5013608;28;20291;-46
2022/06/14 06:14:03;;;;;;;12.93;2.78;;;13.70;99.90;;;;;;5024450;28;20025;-46
2022/06/14 06:16:37;;;;;;;11.23;2.33;;;13.70;99.90;;;;;;5029283;28;20510;-47
2022/06/14 06:19:12;;;;;;;6.50;2.20;;;13.80;99.90;;;;;;5018748;28;20017;-47
2022/06/14 06:21:45;;;;;;;11.27;2.50;;;14.00;99.90;;;;;;5021432;28;20030;-46
2022/06/14 06:24:27;;;;;;;8.52;2.17;;;14.20;99.90;;;;;;5018479;28;20068;-48
2022/06/14 06:27:05;;;;;;;13.98;3.60;;;14.40;99.90;;;;;;5020608;28;20030;-47
2022/06/14 06:29:42;;;;;;;9.00;2.72;;;14.50;99.90;;;;;;5025290;28;20036;-47
2022/06/14 06:32:08;;;;;;;13.05;3.35;;;14.60;99.90;;;;;;5021294;28;20048;-48
2022/06/14 06:34:35;;;;;;;6.75;2.58;;;14.70;99.90;;;;;;5017939;28;20033;-46
2022/06/14 06:37:14;;;;;;;9.45;3.30;;;14.90;99.90;;;;;;5018579;28;20045;-47
2022/06/14 06:39:55;;;;;;;10.27;2.15;;;15.00;99.90;;;;;;5028473;28;20025;-47
2022/06/14 06:42:31;;;;;;;10.07;3.10;;;15.10;99.90;;;;;;5027822;28;20048;-47
2022/06/14 06:45:08;;;;;;;16.85;3.75;;;15.20;99.90;;;;;;5027508;28;20052;-47
2022/06/14 06:47:54;;;;;;;12.38;2.67;;;15.30;99.90;;;;;;5027531;28;20025;-46
2022/06/14 06:50:43;;;;;;;6.80;2.25;;;15.40;99.90;;;;;;5029046;28;20469;-47
2022/06/14 06:53:21;;;;;;;13.13;2.50;;;15.40;99.90;;;;;;5027031;28;20033;-47
2022/06/14 06:56:05;;;;;;;10.70;2.63;;;15.60;99.90;;;;;;5027038;28;20036;-48
2022/06/14 06:58:36;;;;;;;8.07;2.53;;;15.60;99.90;;;;;;5026191;28;20030;-47
2022/06/14 07:01:11;;;;;;;10.75;2.50;;;15.60;99.90;;;;;;5028789;28;20112;-49
2022/06/14 07:03:36;;;;;;;6.70;2.75;;;15.70;99.90;;;;;;5026634;28;20402;-47
2022/06/14 07:06:06;;;;;;;13.30;3.55;;;15.60;99.90;;;;;;5029614;28;20024;-47
2022/06/14 07:08:40;;;;;;;7.43;2.85;;;15.60;99.90;;;;;;5027910;28;20116;-47
2022/06/14 07:11:12;;;;;;;8.00;2.17;;;15.60;99.90;;;;;;5028598;28;20026;-48
2022/06/14 07:13:56;;;;;;;10.32;2.55;;;15.50;99.70;;;;;;5026920;28;20030;-49
2022/06/14 07:16:29;;;;;;;9.45;2.97;;;15.60;99.90;;;;;;5029517;28;20032;-47
2022/06/14 07:19:06;;;;;;;9.60;2.60;;;15.50;99.20;;;;;;5029419;28;20108;-47
2022/06/14 07:21:40;;;;;;;4.70;2.60;;;15.50;98.90;;;;;;5028909;28;20314;-46
2022/06/14 07:24:17;;;;;;;9.80;3.50;;;15.50;99.00;;;;;;5029408;28;20079;-46
2022/06/14 07:26:54;;;;;;;10.13;3.30;;;15.40;98.90;;;;;;5029258;28;20033;-47
2022/06/14 07:29:45;;;;;;;9.23;2.47;;;15.50;98.00;;;;;;5029176;28;20025;-48
2022/06/14 07:32:26;;;;;;;6.40;2.10;;;15.60;97.50;;;;;;5027795;28;20120;-48
2022/06/14 07:34:53;;;;;;;9.35;3.35;;;15.90;97.40;;;;;;5029128;28;20025;-50
2022/06/14 07:37:42;;;;;;;12.45;2.47;;;16.00;96.60;;;;;;5028315;28;20302;-47
2022/06/14 07:40:15;;;;;;;6.05;1.90;;;16.20;95.70;;;;;;5028448;28;20021;-46
2022/06/14 07:43:02;;;;;;;8.35;2.33;;;16.40;95.70;;;;;;5029186;28;20026;-47
2022/06/14 07:45:38;;;;;;;4.10;2.20;;;16.40;95.40;;;;;;5027793;28;20041;-49
2022/06/14 07:48:16;;;;;;;9.68;2.58;;;16.20;95.20;;;;;;5027541;28;20162;-47
2022/06/14 07:50:54;;;;;;;9.32;2.10;;;16.30;95.90;;;;;;5028428;28;20025;-47
2022/06/14 07:53:29;;;;;;;6.68;1.98;;;16.50;94.60;;;;;;5029032;28;20037;-49
2022/06/14 07:56:13;;;;;;;6.60;2.17;;;16.50;95.60;;;;;;5028787;28;20392;-46
2022/06/14 07:58:52;;;;;;;4.70;2.03;;;16.80;93.90;;;;;;5028759;28;20041;-48
2022/06/14 08:01:25;;;;;;;6.40;1.92;;;16.70;93.40;;;;;;5028282;28;20029;-46
2022/06/14 08:04:13;;;;;;;4.80;2.00;;;16.90;93.80;;;;;;5027481;28;20131;-49
2022/06/14 08:06:44;;;;;;;10.88;3.45;;;16.90;93.60;;;;;;5029077;28;20029;-47
2022/06/14 08:09:22;;;;;;;7.80;2.13;;;17.20;93.50;;;;;;5028656;28;20044;-47
2022/06/14 08:11:57;;;;;;;9.60;2.22;;;17.70;93.20;;;;;;5027930;28;20029;-46
2022/06/14 08:14:57;;;;;;;5.80;2.03;;;18.30;90.70;;;;;;5027319;28;20049;-47
2022/06/14 08:17:45;;;;;;;2.65;1.13;;;18.90;90.60;;;;;;5027209;28;20021;-46
2022/06/14 08:20:31;;;;;;;5.55;1.52;;;20.10;82.80;;;;;;5027954;28;20541;-47
2022/06/14 08:23:01;;;;;;;7.95;1.88;;;20.50;82.10;;;;;;5014701;28;20219;-49
2022/06/14 08:25:33;;;;;;;5.43;1.80;;;21.20;79.80;;;;;;5028484;28;20026;-48
2022/06/14 08:28:08;;;;;;;4.18;1.88;;;22.10;75.20;;;;;;5028821;28;20034;-48
2022/06/14 08:30:39;;;;;;;5.38;2.38;;;23.10;72.10;;;;;;5027728;28;20364;-49
2022/06/14 08:33:13;;;;;;;5.78;2.00;;;23.40;70.00;;;;;;5028083;28;20112;-47
2022/06/14 08:35:44;;;;;;;5.78;1.88;;;22.90;68.80;;;;;;5028367;28;20603;-49
2022/06/14 08:38:39;;;;;;;8.25;1.98;;;22.20;70.40;;;;;;5028248;28;20073;-46
2022/06/14 08:41:33;;;;;;;6.30;1.75;;;21.10;72.40;;;;;;5027592;28;20022;-47
2022/06/14 08:44:12;;;;;;;5.70;1.70;;;20.70;74.00;;;;;;5028135;28;20455;-47
2022/06/14 08:47:01;;;;;;;7.95;2.90;;;21.30;74.30;;;;;;5028469;28;20024;-47
2022/06/14 08:49:41;;;;;;;8.07;2.10;;;21.90;71.60;;;;;;5029814;28;20017;-47
2022/06/14 08:52:40;;;;;;;7.05;2.47;;;21.60;71.00;;;;;;5032093;28;20279;-47
2022/06/14 08:55:34;;;;;;;5.80;2.10;;;21.00;71.90;;;;;;5032415;28;20083;-46
2022/06/14 08:58:17;;;;;;;6.40;1.88;;;21.20;71.70;;;;;;5032294;28;20057;-48
2022/06/14 09:00:56;;;;;;;5.90;1.95;;;22.50;68.90;;;;;;5031982;28;20026;-48
2022/06/14 09:03:58;;;;;;;8.18;1.65;;;23.60;65.00;;;;;;5032046;28;20029;-48
2022/06/14 09:06:55;;;;;;;8.93;2.00;;;23.40;62.10;;;;;;5032165;28;20025;-46
2022/06/14 09:09:54;;;;;;;7.28;2.13;;;23.70;63.90;;;;;;5031858;28;20027;-47
2022/06/14 09:12:52;;;;;;;8.38;2.22;;;23.80;63.00;;;;;;5032045;28;20029;-47
2022/06/14 09:15:47;;;;;;;6.05;1.90;;;24.40;62.60;;;;;;5011669;28;20042;-47
2022/06/14 09:18:16;;;;;;;4.13;1.42;;;24.50;61.50;;;;;;5012262;28;20068;-47
2022/06/14 09:20:52;;;;;;;6.78;1.92;;;25.50;59.50;;;;;;5009994;28;20424;-47
2022/06/14 09:23:25;;;;;;;3.97;1.80;;;26.20;57.60;;;;;;5011924;28;20443;-47
2022/06/14 09:26:23;;;;;;;4.45;1.27;;;27.20;55.10;;;;;;5012351;28;20037;-48
2022/06/14 09:29:07;;;;;;;5.63;1.58;;;26.20;54.80;;;;;;5011794;28;20503;-48
2022/06/14 09:31:50;;;;;;;5.68;1.50;;;24.60;58.00;;;;;;5023856;28;20025;-49
2022/06/14 09:34:27;;;;;;;7.45;1.52;;;23.40;60.10;;;;;;5028678;28;20122;-49
2022/06/14 09:37:22;;;;;;;11.10;1.70;;;23.30;61.40;;;;;;5029997;28;20016;-48
2022/06/14 09:40:10;;;;;;;5.63;1.83;;;24.30;58.90;;;;;;5029501;28;20486;-46
2022/06/14 09:43:08;;;;;;;5.20;1.65;;;25.40;56.60;;;;;;5028424;28;20415;-47
2022/06/14 09:45:58;;;;;;;6.57;2.03;;;25.10;56.70;;;;;;4990137;28;20105;-47
2022/06/14 09:48:47;;;;;;;3.90;1.48;;;25.50;56.10;;;;;;5029345;28;20437;-46
2022/06/14 09:51:37;;;;;;;4.83;1.27;;;25.30;54.50;;;;;;5028586;28;20096;-47
2022/06/14 09:54:34;;;;;;;4.70;2.03;;;25.10;56.40;;;;;;5029155;28;20119;-48
2022/06/14 09:57:22;;;;;;;3.72;1.50;;;24.90;55.90;;;;;;5028562;28;20014;-47
2022/06/14 10:00:05;;;;;;;5.10;1.30;;;25.70;55.10;;;;;;5028736;28;20499;-50
2022/06/14 10:02:42;;;;;;;3.75;1.50;;;26.00;53.20;;;;;;5029572;28;20064;-51
2022/06/14 10:05:26;;;;;;;6.68;1.95;;;24.90;54.70;;;;;;5029490;28;20371;-46
2022/06/14 10:08:16;;;;;;;10.13;2.28;;;23.70;57.40;;;;;;5029807;28;20100;-50
2022/06/14 10:10:48;;;;;;;;;;;23.50;58.90;;;;;;5030381;28;20092;-47
2022/06/14 10:13:35;;;;;;;7.85;1.50;;;24.00;58.70;;;;;;5030301;28;20409;-47
2022/06/14 10:16:33;;;;;;;4.45;1.38;;;25.40;56.20;;;;;;5028115;28;20530;-47
2022/06/14 10:19:31;;;;;;;7.28;1.90;;;25.90;54.00;;;;;;5028895;28;20025;-48
2022/06/14 10:22:18;;;;;;;5.68;1.70;;;25.20;54.60;;;;;;5030130;28;20029;-49
2022/06/14 10:24:47;;;;;;;4.38;1.40;;;24.60;55.10;;;;;;5028743;28;20060;-50
2022/06/14 10:30:25;;;;;;;6.68;1.67;;;22.90;57.10;;;;;;5028098;28;20032;-48
2022/06/14 10:33:00;;;;;;;6.82;1.50;;;23.40;58.40;;;;;;5028087;28;20033;-47
2022/06/14 10:35:42;;;;;;;4.32;1.63;;;24.80;55.20;;;;;;5029849;28;20548;-50
2022/06/14 10:38:39;;;;;;;5.35;1.65;;;26.00;54.10;;;;;;5028729;28;20029;-51
2022/06/14 10:41:21;;;;;;;4.55;1.73;;;27.20;52.80;;;;;;5026200;28;20114;-49
2022/06/14 10:44:09;;;;;;;6.20;1.60;;;26.50;53.00;;;;;;5028194;28;20021;-49
2022/06/14 10:46:43;;;;;;;5.38;1.38;;;26.00;53.20;;;;;;5029193;28;20034;-49
2022/06/14 10:49:40;;;;;;;3.25;1.50;;;26.20;52.80;;;;;;5030200;28;20028;-49
2022/06/14 10:52:43;;;;;;;4.28;1.48;;;27.20;53.80;;;;;;5030198;28;20029;-48
2022/06/14 10:55:30;;;;;;;5.65;2.28;;;28.70;49.70;;;;;;5030198;28;20029;-50
2022/06/14 10:58:41;;;;;;;5.18;2.67;;;28.20;48.70;;;;;;5030110;28;20022;-50
2022/06/14 11:01:15;;;;;;;4.70;1.65;;;27.30;47.80;;;;;;4932519;29;20124;-50
2022/06/14 11:04:19;;;;;;;4.95;1.65;;;26.50;50.20;;;;;;4949417;29;20027;-47
2022/06/14 11:07:06;;;;;;;5.00;1.80;;;25.70;51.70;;;;;;4980457;28;20052;-47
2022/06/14 11:09:38;;;;;;;6.43;2.00;;;24.80;52.80;;;;;;5029465;28;20383;-48
2022/06/14 11:12:16;;;;;;;6.70;1.63;;;25.00;54.80;;;;;;5029691;28;20033;-49
2022/06/14 11:14:44;;;;;;;4.55;1.55;;;26.00;53.00;;;;;;5029757;28;20596;-47
2022/06/14 11:17:12;;;;;;;4.05;1.48;;;27.10;51.50;;;;;;5029531;28;20036;-49
2022/06/14 11:19:44;;;;;;;4.50;1.40;;;27.80;49.00;;;;;;5027737;28;20021;-51
2022/06/14 11:22:35;;;;;;;3.15;1.48;;;27.50;48.50;;;;;;5029597;28;20375;-49
2022/06/14 11:25:47;;;;;;;4.97;1.77;;;28.70;47.90;;;;;;5029498;28;20035;-48
2022/06/14 11:28:30;;;;;;;3.67;1.50;;;29.10;47.70;;;;;;4985055;28;20041;-48
2022/06/14 11:31:42;;;;;;;5.10;1.83;;;30.00;45.00;;;;;;5028717;28;20021;-50
2022/06/14 11:34:22;;;;;;;3.70;1.52;;;29.90;46.30;;;;;;4948409;29;20038;-51
2022/06/14 11:37:12;;;;;;;4.72;1.80;;;29.60;46.80;;;;;;4944054;29;20393;-48
2022/06/14 11:40:02;;;;;;;3.40;1.50;;;30.10;45.00;;;;;;5009760;28;20033;-50
2022/06/14 11:42:38;;;;;;;5.40;2.08;;;30.10;45.20;;;;;;5024346;28;20026;-50
2022/06/14 11:45:13;;;;;;;5.57;1.40;;;30.30;45.80;;;;;;5028567;28;20041;-50
2022/06/14 11:47:50;;;;;;;4.38;1.83;;;30.40;45.00;;;;;;5028275;28;20047;-51
2022/06/14 11:50:34;;;;;;;9.20;1.98;;;30.60;45.30;;;;;;5027593;28;20036;-50
2022/06/14 11:53:14;;;;;;;5.32;1.73;;;30.90;43.90;;;;;;5026428;28;20095;-51
2022/06/14 11:56:07;;;;;;;7.07;1.98;;;30.30;45.80;;;;;;5028254;28;20245;-51
2022/06/14 11:58:54;;;;;;;5.60;1.55;;;29.30;43.50;;;;;;5028585;28;20111;-50
2022/06/14 12:01:42;;;;;;;5.38;1.50;;;28.80;45.60;;;;;;5027366;28;20030;-49
2022/06/14 12:04:27;;;;;;;8.52;1.88;;;27.80;47.60;;;;;;5028178;28;20045;-47
2022/06/14 12:07:07;;;;;;;7.93;1.48;;;27.10;48.30;;;;;;5027980;28;20025;-49
2022/06/14 12:10:02;;;;;;;7.53;1.88;;;26.10;50.40;;;;;;5027624;28;20103;-47
2022/06/14 12:12:51;;;;;;;7.85;2.38;;;25.40;51.90;;;;;;5027834;28;20459;-50
2022/06/14 12:15:41;;;;;;;6.82;1.92;;;25.50;53.70;;;;;;5026447;28;20470;-48
2022/06/14 12:18:12;;;;;;;5.35;2.15;;;25.70;51.70;;;;;;5027204;28;20022;-49
2022/06/14 12:20:57;;;;;;;;;;;25.70;51.30;;;;;;5027095;28;20067;-48
2022/06/14 12:23:29;;;;;;;5.18;1.70;;;25.80;53.40;;;;;;5027569;28;19944;-50
2022/06/14 12:29:05;;;;;;;5.07;1.50;;;26.30;51.60;;;;;;5029170;28;20036;-49
2022/06/14 12:31:57;;;;;;;7.18;1.95;;;25.70;52.00;;;;;;5027823;28;20017;-50
2022/06/14 12:34:45;;;;;;;6.22;1.55;;;25.50;52.40;;;;;;5028443;28;20406;-47
2022/06/14 12:37:37;;;;;;;5.90;1.80;;;24.90;52.80;;;;;;5028451;28;20021;-50
2022/06/14 12:40:12;;;;;;;4.45;1.65;;;24.50;53.70;;;;;;5028148;28;20438;-47
2022/06/14 12:43:11;;;;;;;6.78;1.50;;;24.10;53.60;;;;;;5028639;28;20040;-46
2022/06/14 12:45:43;;;;;;;5.40;2.40;;;23.60;55.50;;;;;;5028299;28;20546;-50
2022/06/14 12:48:19;;;;;;;6.05;2.00;;;23.50;55.70;;;;;;5028592;28;20616;-47
2022/06/14 12:51:12;;;;;;;3.75;1.60;;;23.40;54.40;;;;;;5029378;28;20033;-49
2022/06/14 12:54:00;;;;;;;7.75;2.10;;;23.70;55.20;;;;;;5028707;28;20068;-47
2022/06/14 12:56:45;;;;;;;5.15;1.65;;;23.50;55.20;;;;;;5029601;28;20706;-49
2022/06/14 12:59:27;;;;;;;3.28;1.60;;;23.80;55.00;;;;;;5029077;28;20029;-48
2022/06/14 13:02:22;;;;;;;5.32;1.73;;;24.50;57.30;;;;;;5027305;28;20025;-47
2022/06/14 13:04:53;;;;;;;6.22;1.60;;;24.10;55.00;;;;;;5025829;28;20033;-49
2022/06/14 13:07:45;;;;;;;4.78;1.65;;;24.30;55.00;;;;;;5029972;28;20096;-51
2022/06/14 13:10:24;;;;;;;3.28;1.45;;;23.90;55.00;;;;;;5027877;28;20492;-48
2022/06/14 13:13:11;;;;;;;4.20;1.63;;;24.20;56.10;;;;;;5029518;28;20534;-46
2022/06/14 13:15:49;;;;;;;6.75;1.70;;;24.30;54.30;;;;;;5029577;28;20138;-47
2022/06/14 13:18:52;;;;;;;4.20;1.70;;;24.40;55.40;;;;;;5029421;28;20494;-45
2022/06/14 13:21:40;;;;;;;10.00;1.83;;;24.60;53.40;;;;;;5026802;28;20029;-48
2022/06/14 13:24:26;;;;;;;6.03;1.45;;;24.60;54.70;;;;;;5026956;28;20502;-48
2022/06/14 13:27:17;;;;;;;3.95;1.70;;;25.10;54.00;;;;;;5028018;28;20055;-48
2022/06/14 13:30:17;;;;;;;4.70;1.58;;;25.20;53.10;;;;;;5027329;28;20279;-48
2022/06/14 13:32:48;;;;;;;4.10;1.57;;;25.20;52.80;;;;;;5027991;28;20048;-47
2022/06/14 13:35:29;;;;;;;6.85;2.08;;;25.10;52.00;;;;;;5027941;28;20260;-47
2022/06/14 13:38:12;;;;;;;6.05;1.98;;;25.10;52.40;;;;;;5031379;28;20361;-46
2022/06/14 13:40:44;;;;;;;6.03;1.95;;;24.90;53.10;;;;;;5030498;28;20124;-49
2022/06/14 13:43:17;;;;;;;6.53;2.05;;;25.10;53.30;;;;;;5031284;28;20071;-48
2022/06/14 13:46:03;;;;;;;3.33;1.60;;;25.00;53.30;;;;;;5030186;28;20083;-47
2022/06/14 13:48:47;;;;;;;4.13;1.50;;;25.10;53.20;;;;;;5029733;28;20112;-49
2022/06/14 13:51:27;;;;;;;4.95;1.85;;;24.70;52.50;;;;;;5029216;28;20018;-48
2022/06/14 13:54:04;;;;;;;5.88;1.90;;;24.60;54.20;;;;;;5029722;28;20256;-47
2022/06/14 13:56:39;;;;;;;5.00;1.98;;;24.80;54.40;;;;;;5029760;28;20021;-47
2022/06/14 13:59:16;;;;;;;7.88;2.42;;;25.00;52.30;;;;;;5028533;28;20033;-47
2022/06/14 14:01:54;;;;;;;4.90;1.52;;;24.50;52.20;;;;;;5030581;28;20107;-49
2022/06/14 14:04:37;;;;;;;9.57;2.22;;;23.60;54.00;;;;;;5031138;28;20032;-47
2022/06/14 14:07:22;;;;;;;5.82;2.15;;;23.60;54.70;;;;;;5031116;28;20105;-47
2022/06/14 14:10:18;;;;;;;4.35;1.77;;;23.80;55.30;;;;;;5030581;28;20030;-47